createdAt,value
2023-05-04T00:00:29.034Z,96.40
2023-05-04T00:02:57.221Z,96.70
2023-05-04T00:05:25.190Z,96.80
2023-05-04T00:07:53.119Z,96.70
2023-05-04T00:10:21.406Z,96.80
2023-05-04T00:12:49.349Z,96.70
2023-05-04T00:15:17.626Z,96.60
2023-05-04T00:17:47.034Z,96.60
2023-05-04T00:20:15.057Z,96.30
2023-05-04T00:22:43.008Z,96.40
2023-05-04T00:25:11.630Z,96.50
2023-05-04T00:27:39.619Z,96.20
2023-05-04T00:30:08.854Z,96.10
2023-05-04T00:32:36.891Z,96.00
2023-05-04T00:35:07.249Z,96.10
2023-05-04T00:37:35.224Z,96.00
2023-05-04T00:40:03.707Z,96.20
2023-05-04T00:42:31.844Z,96.20
2023-05-04T00:44:59.819Z,96.20
2023-05-04T00:47:29.787Z,96.60
2023-05-04T00:49:57.907Z,96.50
2023-05-04T00:52:27.816Z,96.70
2023-05-04T00:54:56.045Z,96.90
2023-05-04T00:57:24.314Z,96.50
2023-05-04T00:59:53.357Z,96.30
2023-05-04T01:02:21.682Z,96.20
2023-05-04T01:04:49.974Z,95.90
2023-05-04T01:07:33.537Z,96.00
2023-05-04T01:10:05.909Z,95.80
2023-05-04T01:12:39.874Z,95.80
2023-05-04T01:15:10.550Z,96.30
2023-05-04T01:17:38.689Z,96.30
2023-05-04T01:20:09.404Z,96.10
2023-05-04T01:22:39.694Z,96.10
2023-05-04T01:25:09.323Z,95.90
2023-05-04T01:27:46.718Z,95.90
2023-05-04T01:30:19.497Z,95.90
2023-05-04T01:32:48.702Z,96.00
2023-05-04T01:35:16.971Z,95.80
2023-05-04T01:37:46.350Z,95.70
2023-05-04T01:40:14.296Z,95.90
2023-05-04T01:42:42.298Z,95.90
2023-05-04T01:45:11.368Z,96.00
2023-05-04T01:47:39.523Z,96.00
2023-05-04T01:50:08.133Z,95.50
2023-05-04T01:52:36.147Z,95.60
2023-05-04T01:55:05.881Z,95.90
2023-05-04T01:57:33.867Z,96.20
2023-05-04T02:00:02.040Z,96.40
2023-05-04T02:02:30.859Z,96.20
2023-05-04T02:04:58.854Z,96.30
2023-05-04T02:07:26.862Z,96.20
2023-05-04T02:09:54.823Z,96.10
2023-05-04T02:12:24.140Z,96.00
2023-05-04T02:14:52.141Z,96.00
2023-05-04T02:17:20.344Z,96.10
2023-05-04T02:19:48.366Z,96.10
2023-05-04T02:22:16.628Z,96.00
2023-05-04T02:24:44.584Z,96.00
2023-05-04T02:27:12.675Z,95.90
2023-05-04T02:29:42.008Z,96.00
2023-05-04T02:32:10.019Z,96.10
2023-05-04T02:34:38.121Z,95.90
2023-05-04T02:37:07.548Z,96.00
2023-05-04T02:39:35.703Z,96.00
2023-05-04T02:42:04.016Z,96.00
2023-05-04T02:44:31.990Z,96.30
2023-05-04T02:47:02.065Z,96.00
2023-05-04T02:49:30.025Z,96.40
2023-05-04T02:51:58.085Z,96.50
2023-05-04T02:54:26.031Z,96.10
2023-05-04T02:56:53.980Z,96.10
2023-05-04T02:59:21.914Z,96.20
2023-05-04T03:01:49.931Z,96.10
2023-05-04T03:04:19.253Z,96.40
2023-05-04T03:06:47.418Z,96.30
2023-05-04T03:09:15.404Z,96.10
2023-05-04T03:11:43.400Z,96.20
2023-05-04T03:14:11.362Z,96.60
2023-05-04T03:16:39.393Z,96.30
2023-05-04T03:19:07.469Z,96.40
2023-05-04T03:21:36.835Z,96.30
2023-05-04T03:24:05.393Z,96.30
2023-05-04T03:26:33.332Z,96.50
2023-05-04T03:29:01.338Z,96.40
2023-05-04T03:31:29.332Z,96.70
2023-05-04T03:33:57.340Z,96.30
2023-05-04T03:36:25.319Z,96.90
2023-05-04T03:38:54.650Z,96.90
2023-05-04T03:41:22.596Z,96.80
2023-05-04T03:43:50.578Z,96.90
2023-05-04T03:46:18.543Z,96.80
2023-05-04T03:48:46.520Z,96.60
2023-05-04T03:51:14.564Z,96.50
2023-05-04T03:53:44.638Z,96.60
2023-05-04T03:56:14.335Z,96.50
2023-05-04T03:58:42.306Z,96.80
2023-05-04T04:01:10.577Z,96.90
2023-05-04T04:03:39.080Z,97.10
2023-05-04T04:06:08.545Z,97.00
2023-05-04T04:08:36.644Z,97.20
2023-05-04T04:11:04.720Z,97.20
2023-05-04T04:13:34.063Z,97.10
2023-05-04T04:16:02.207Z,96.70
2023-05-04T04:18:30.189Z,96.80
2023-05-04T04:20:58.248Z,96.90
2023-05-04T04:23:26.372Z,96.80
2023-05-04T04:25:54.962Z,96.90
2023-05-04T04:28:22.926Z,96.90
2023-05-04T04:30:53.033Z,97.00
2023-05-04T04:33:21.307Z,97.10
2023-05-04T04:35:49.525Z,97.30
2023-05-04T04:38:17.449Z,97.20
2023-05-04T04:40:45.447Z,97.50
2023-05-04T04:43:14.204Z,97.70
2023-05-04T04:45:42.175Z,97.70
2023-05-04T04:48:12.828Z,97.60
2023-05-04T04:50:41.112Z,97.60
2023-05-04T04:53:09.748Z,97.90
2023-05-04T04:55:37.748Z,98.20
2023-05-04T04:58:05.856Z,97.90
2023-05-04T05:00:33.852Z,97.80
2023-05-04T05:03:01.798Z,97.80
2023-05-04T05:05:31.860Z,97.60
2023-05-04T05:08:00.039Z,97.80
2023-05-04T05:10:28.026Z,98.10
2023-05-04T05:12:56.318Z,98.00
2023-05-04T05:15:24.429Z,98.10
2023-05-04T05:17:52.472Z,98.30
2023-05-04T05:20:21.335Z,98.70
2023-05-04T05:22:51.579Z,98.40
2023-05-04T05:25:19.958Z,98.30
2023-05-04T05:27:47.974Z,98.70
2023-05-04T05:30:16.292Z,98.50
2023-05-04T05:32:44.670Z,98.70
2023-05-04T05:35:13.566Z,98.40
2023-05-04T05:37:41.500Z,99.00
2023-05-04T05:40:12.286Z,98.50
2023-05-04T05:42:41.473Z,98.40
2023-05-04T05:45:10.861Z,98.30
2023-05-04T05:47:39.153Z,98.10
2023-05-04T05:50:08.749Z,98.00
2023-05-04T05:52:36.849Z,98.20
2023-05-04T05:55:05.137Z,98.50
2023-05-04T05:57:34.507Z,97.80
2023-05-04T06:00:02.772Z,97.70
2023-05-04T06:02:31.012Z,97.00
2023-05-04T06:04:59.108Z,96.60
2023-05-04T06:07:27.212Z,96.50
2023-05-04T06:09:55.214Z,96.70
2023-05-04T06:12:23.310Z,95.40
2023-05-04T06:14:52.805Z,94.50
2023-05-04T06:17:21.691Z,93.70
2023-05-04T06:19:51.198Z,92.90
2023-05-04T06:22:19.204Z,94.60
2023-05-04T06:24:47.551Z,93.60
2023-05-04T06:27:15.555Z,92.80
2023-05-04T06:29:43.483Z,91.60
2023-05-04T06:32:13.044Z,91.40
2023-05-04T06:34:41.134Z,90.90
2023-05-04T06:37:09.129Z,91.80
2023-05-04T06:39:37.114Z,91.10
2023-05-04T06:42:05.249Z,91.00
2023-05-04T06:44:37.716Z,90.10
2023-05-04T06:47:07.393Z,82.90
2023-05-04T06:49:37.017Z,85.90
2023-05-04T06:52:05.492Z,84.30
2023-05-04T06:54:33.497Z,82.30
2023-05-04T06:57:04.388Z,82.30
2023-05-04T06:59:32.398Z,83.60
2023-05-04T07:02:00.499Z,84.00
2023-05-04T07:04:28.428Z,81.20
2023-05-04T07:06:57.836Z,84.00
2023-05-04T07:09:26.068Z,81.10
2023-05-04T07:11:54.355Z,79.80
2023-05-04T07:14:22.408Z,80.70
2023-05-04T07:16:50.404Z,82.20
2023-05-04T07:19:18.498Z,81.70
2023-05-04T07:21:47.287Z,80.50
2023-05-04T07:24:16.624Z,78.00
2023-05-04T07:26:44.692Z,78.60
2023-05-04T07:29:12.633Z,79.40
2023-05-04T07:31:40.616Z,76.90
2023-05-04T07:34:08.631Z,78.20
2023-05-04T07:36:36.661Z,77.60
2023-05-04T07:39:04.755Z,76.80
2023-05-04T07:41:34.053Z,75.40
2023-05-04T07:44:05.493Z,76.60
2023-05-04T07:46:33.762Z,76.50
2023-05-04T07:49:02.960Z,76.40
2023-05-04T07:51:30.978Z,75.10
2023-05-04T07:53:58.939Z,80.10
2023-05-04T07:56:26.863Z,78.00
2023-05-04T07:58:56.176Z,78.90
2023-05-04T08:01:24.646Z,79.00
2023-05-04T08:03:52.645Z,77.00
2023-05-04T08:06:21.894Z,78.90
2023-05-04T08:08:52.696Z,78.30
2023-05-04T08:11:21.332Z,77.70
2023-05-04T08:13:50.168Z,78.70
2023-05-04T08:16:19.501Z,79.90
2023-05-04T08:18:47.462Z,79.80
2023-05-04T08:21:15.587Z,79.80
2023-05-04T08:23:43.606Z,79.90
2023-05-04T08:26:11.611Z,77.40
2023-05-04T08:28:41.004Z,77.70
2023-05-04T08:31:09.088Z,79.50
2023-05-04T08:33:38.443Z,78.30
2023-05-04T08:36:08.031Z,79.40
2023-05-04T08:38:36.382Z,79.90
2023-05-04T08:41:04.752Z,78.20
2023-05-04T08:43:35.409Z,79.10
2023-05-04T08:46:04.758Z,78.40
2023-05-04T08:48:33.681Z,77.00
2023-05-04T08:51:04.252Z,77.40
2023-05-04T08:53:33.654Z,76.70
2023-05-04T08:56:04.458Z,75.60
2023-05-04T08:58:37.698Z,77.00
2023-05-04T09:01:07.768Z,76.20
2023-05-04T09:03:36.118Z,77.60
2023-05-04T09:06:07.898Z,75.00
2023-05-04T09:08:36.215Z,75.40
2023-05-04T09:11:04.349Z,76.10
2023-05-04T09:13:32.561Z,76.10
2023-05-04T09:16:00.600Z,75.20
2023-05-04T09:18:38.154Z,75.20
2023-05-04T09:21:08.046Z,77.80
2023-05-04T09:23:47.198Z,76.90
2023-05-04T09:26:15.597Z,75.00
2023-05-04T09:28:43.781Z,76.00
2023-05-04T09:31:12.264Z,75.90
2023-05-04T09:33:40.268Z,74.50
2023-05-04T09:36:16.988Z,76.40
2023-05-04T09:38:45.254Z,75.40
2023-05-04T09:41:13.285Z,76.20
2023-05-04T09:43:42.068Z,75.50
2023-05-04T09:46:18.066Z,75.60
2023-05-04T09:48:53.492Z,75.40
2023-05-04T09:51:25.573Z,74.90
2023-05-04T09:53:54.355Z,75.50
2023-05-04T09:56:32.380Z,75.40
2023-05-04T09:59:00.529Z,72.60
2023-05-04T10:01:30.022Z,73.80
2023-05-04T10:03:58.454Z,72.60
2023-05-04T10:06:30.403Z,72.60
2023-05-04T10:09:00.534Z,73.00
2023-05-04T10:11:29.639Z,73.30
2023-05-04T10:13:58.201Z,70.50
2023-05-04T10:16:37.664Z,70.60
2023-05-04T10:19:20.718Z,72.30
2023-05-04T10:22:07.912Z,73.10
2023-05-04T10:24:59.696Z,71.20
2023-05-04T10:27:44.913Z,70.50
2023-05-04T10:30:15.864Z,67.80
2023-05-04T10:32:43.905Z,68.30
2023-05-04T10:35:12.374Z,67.00
2023-05-04T10:37:54.294Z,68.30
2023-05-04T10:40:36.703Z,72.50
2023-05-04T10:43:05.172Z,70.30
2023-05-04T10:45:37.678Z,69.60
2023-05-04T10:48:06.453Z,66.60
2023-05-04T10:50:44.111Z,67.40
2023-05-04T10:53:14.296Z,69.10
2023-05-04T10:55:43.056Z,68.60
2023-05-04T10:58:14.677Z,68.20
2023-05-04T11:00:44.686Z,68.80
2023-05-04T11:03:14.010Z,65.60
2023-05-04T11:05:43.570Z,66.40
2023-05-04T11:08:20.682Z,67.80
2023-05-04T11:10:49.434Z,68.10
2023-05-04T11:13:17.624Z,66.00
2023-05-04T11:15:46.854Z,66.10
2023-05-04T11:18:15.441Z,66.50
2023-05-04T11:20:43.620Z,63.70
2023-05-04T11:23:17.282Z,65.70
2023-05-04T11:25:46.626Z,67.10
2023-05-04T11:28:14.912Z,68.20
2023-05-04T11:30:44.489Z,65.40
2023-05-04T11:33:13.531Z,66.00
2023-05-04T11:35:42.453Z,64.00
2023-05-04T11:38:13.193Z,63.10
2023-05-04T11:40:48.322Z,63.50
2023-05-04T11:43:18.657Z,64.00
2023-05-04T11:45:49.554Z,62.00
2023-05-04T11:48:18.713Z,63.30
2023-05-04T11:50:48.071Z,62.00
2023-05-04T11:53:21.409Z,62.60
2023-05-04T11:55:49.513Z,63.30
2023-05-04T11:58:25.722Z,63.60
2023-05-04T12:00:57.494Z,64.50
2023-05-04T12:03:39.793Z,65.20
2023-05-04T12:06:15.631Z,62.80
2023-05-04T12:08:43.844Z,60.70
2023-05-04T12:11:16.242Z,59.70
2023-05-04T12:13:47.341Z,61.30
2023-05-04T12:16:16.633Z,58.90
2023-05-04T12:18:45.376Z,60.00
2023-05-04T12:21:14.698Z,59.20
2023-05-04T12:23:43.477Z,58.80
2023-05-04T12:26:12.574Z,58.70
2023-05-04T12:28:42.246Z,57.40
2023-05-04T12:31:11.690Z,56.80
2023-05-04T12:33:39.701Z,57.80
2023-05-04T12:36:08.578Z,57.50
2023-05-04T12:38:37.463Z,57.90
2023-05-04T12:41:05.967Z,63.40
2023-05-04T12:43:33.968Z,58.60
2023-05-04T12:46:02.117Z,60.80
2023-05-04T12:48:32.909Z,59.40
2023-05-04T12:51:01.826Z,59.40
2023-05-04T12:53:31.874Z,59.30
2023-05-04T12:56:01.016Z,59.70
2023-05-04T12:58:29.373Z,58.90
2023-05-04T13:00:57.775Z,58.40
2023-05-04T13:03:25.934Z,57.30
2023-05-04T13:05:56.185Z,57.80
2023-05-04T13:08:24.194Z,58.50
2023-05-04T13:10:52.507Z,59.90
2023-05-04T13:13:23.009Z,58.70
2023-05-04T13:15:51.670Z,60.40
2023-05-04T13:18:19.758Z,59.10
2023-05-04T13:20:47.917Z,57.90
2023-05-04T13:23:17.222Z,57.70
2023-05-04T13:25:45.196Z,57.60
2023-05-04T13:28:13.167Z,57.90
2023-05-04T13:30:41.089Z,58.30
2023-05-04T13:33:20.751Z,58.60
2023-05-04T13:35:56.851Z,59.00
2023-05-04T13:38:26.891Z,58.60
2023-05-04T13:40:54.910Z,57.80
2023-05-04T13:43:23.229Z,59.20
2023-05-04T13:45:51.422Z,57.50
2023-05-04T13:48:19.413Z,56.90
2023-05-04T13:50:47.348Z,57.70
2023-05-04T13:53:15.389Z,57.50
2023-05-04T13:55:44.850Z,57.10
2023-05-04T13:58:12.787Z,57.20
2023-05-04T14:00:40.843Z,57.00
2023-05-04T14:03:08.920Z,57.20
2023-05-04T14:05:36.905Z,58.40
2023-05-04T14:08:04.972Z,56.90
2023-05-04T14:10:33.444Z,56.50
2023-05-04T14:13:04.158Z,56.10
2023-05-04T14:15:32.310Z,56.60
2023-05-04T14:18:00.379Z,56.50
2023-05-04T14:20:28.425Z,55.70
2023-05-04T14:22:56.419Z,57.90
2023-05-04T14:25:24.436Z,56.70
2023-05-04T14:27:52.374Z,57.10
2023-05-04T14:30:21.922Z,58.70
2023-05-04T14:32:53.935Z,56.70
2023-05-04T14:35:22.258Z,58.50
2023-05-04T14:37:50.669Z,56.80
2023-05-04T14:40:18.729Z,56.90
2023-05-04T14:42:47.074Z,57.50
2023-05-04T14:45:16.204Z,58.30
2023-05-04T14:47:45.650Z,57.10
2023-05-04T14:50:14.138Z,56.90
2023-05-04T14:52:42.095Z,56.60
2023-05-04T14:55:10.790Z,57.60
2023-05-04T14:57:38.775Z,57.20
2023-05-04T15:00:09.563Z,57.20
2023-05-04T15:02:38.537Z,57.30
2023-05-04T15:05:12.375Z,58.60
2023-05-04T15:07:40.352Z,55.80
2023-05-04T15:10:10.347Z,56.90
2023-05-04T15:12:39.536Z,57.30
2023-05-04T15:15:08.632Z,56.90
2023-05-04T15:17:36.716Z,56.40
2023-05-04T15:20:05.348Z,56.90
2023-05-04T15:22:35.064Z,56.40
2023-05-04T15:25:03.489Z,55.10
2023-05-04T15:27:31.665Z,56.20
2023-05-04T15:29:59.661Z,55.50
2023-05-04T15:32:27.825Z,56.60
2023-05-04T15:35:04.359Z,56.00
2023-05-04T15:37:35.350Z,56.00
2023-05-04T15:40:04.553Z,55.70
2023-05-04T15:42:32.861Z,55.80
2023-05-04T15:45:01.189Z,56.30
2023-05-04T15:47:29.499Z,56.60
2023-05-04T15:49:57.467Z,57.00
2023-05-04T15:52:25.524Z,56.80
2023-05-04T15:54:54.847Z,57.60
2023-05-04T15:57:22.857Z,57.90
2023-05-04T15:59:50.905Z,58.00
2023-05-04T16:02:19.091Z,56.30
2023-05-04T16:04:47.135Z,56.90
2023-05-04T16:07:15.293Z,56.90
2023-05-04T16:09:43.216Z,56.10
2023-05-04T16:12:12.703Z,56.20
2023-05-04T16:14:40.627Z,56.80
2023-05-04T16:17:09.296Z,55.50
2023-05-04T16:19:37.925Z,56.60
2023-05-04T16:22:06.526Z,55.60
2023-05-04T16:24:36.024Z,54.80
2023-05-04T16:27:04.370Z,56.60
2023-05-04T16:29:33.716Z,55.70
2023-05-04T16:32:02.976Z,55.50
2023-05-04T16:34:31.013Z,55.50
2023-05-04T16:36:58.945Z,56.30
2023-05-04T16:39:31.477Z,56.00
2023-05-04T16:41:59.880Z,56.00
2023-05-04T16:44:27.878Z,56.60
2023-05-04T16:46:57.147Z,57.90
2023-05-04T16:49:25.221Z,57.30
2023-05-04T16:51:55.262Z,57.50
2023-05-04T16:54:24.122Z,57.90
2023-05-04T16:56:52.284Z,57.70
2023-05-04T16:59:20.434Z,58.30
2023-05-04T17:01:48.868Z,57.30
2023-05-04T17:04:18.334Z,58.30
2023-05-04T17:06:46.629Z,57.30
2023-05-04T17:09:14.905Z,58.30
2023-05-04T17:11:43.076Z,58.30
2023-05-04T17:14:11.020Z,58.50
2023-05-04T17:16:39.389Z,59.10
2023-05-04T17:19:09.538Z,59.50
2023-05-04T17:21:40.822Z,60.00
2023-05-04T17:24:09.077Z,60.00
2023-05-04T17:26:37.444Z,61.00
2023-05-04T17:29:05.723Z,61.40
2023-05-04T17:31:33.755Z,62.00
2023-05-04T17:34:01.878Z,63.20
2023-05-04T17:36:29.887Z,64.50
2023-05-04T17:38:59.510Z,65.10
2023-05-04T17:41:27.512Z,66.20
2023-05-04T17:43:55.994Z,67.70
2023-05-04T17:46:25.071Z,68.60
2023-05-04T17:48:54.466Z,69.00
2023-05-04T17:51:23.761Z,70.00
2023-05-04T17:53:52.067Z,70.60
2023-05-04T17:56:22.007Z,70.60
2023-05-04T17:58:49.992Z,69.80
2023-05-04T18:01:18.222Z,69.70
2023-05-04T18:03:46.979Z,69.50
2023-05-04T18:06:15.157Z,70.30
2023-05-04T18:08:43.229Z,70.20
2023-05-04T18:11:11.327Z,70.70
2023-05-04T18:13:40.779Z,71.20
2023-05-04T18:16:09.314Z,70.90
2023-05-04T18:18:37.765Z,71.30
2023-05-04T18:21:06.189Z,71.30
2023-05-04T18:23:34.249Z,71.60
2023-05-04T18:26:02.227Z,71.50
2023-05-04T18:28:30.436Z,71.30
2023-05-04T18:31:00.041Z,71.70
2023-05-04T18:33:28.119Z,71.40
2023-05-04T18:35:56.085Z,71.20
2023-05-04T18:38:26.368Z,70.90
2023-05-04T18:40:54.634Z,71.00
2023-05-04T18:43:22.716Z,70.80
2023-05-04T18:45:50.826Z,70.70
2023-05-04T18:48:21.097Z,71.20
2023-05-04T18:50:53.985Z,71.60
2023-05-04T18:53:22.193Z,71.90
2023-05-04T18:56:03.174Z,72.00
2023-05-04T18:58:31.328Z,71.90
2023-05-04T19:00:59.612Z,72.00
2023-05-04T19:03:29.179Z,72.10
2023-05-04T19:05:57.358Z,72.40
2023-05-04T19:08:25.334Z,73.90
2023-05-04T19:10:53.348Z,76.30
2023-05-04T19:13:21.832Z,76.80
2023-05-04T19:15:49.806Z,77.30
2023-05-04T19:18:18.270Z,78.70
2023-05-04T19:20:48.409Z,79.60
2023-05-04T19:23:16.546Z,78.30
2023-05-04T19:25:45.225Z,81.60
2023-05-04T19:28:13.287Z,83.80
2023-05-04T19:30:42.137Z,85.00
2023-05-04T19:33:10.343Z,85.10
2023-05-04T19:35:38.399Z,84.30
2023-05-04T19:38:07.755Z,85.20
2023-05-04T19:40:36.173Z,83.80
2023-05-04T19:43:04.487Z,83.30
2023-05-04T19:45:32.785Z,83.70
2023-05-04T19:48:00.830Z,84.00
2023-05-04T19:50:29.350Z,84.00
2023-05-04T19:52:57.350Z,84.10
2023-05-04T19:55:27.954Z,84.20
2023-05-04T19:57:56.055Z,83.90
2023-05-04T20:00:24.117Z,82.90
2023-05-04T20:02:52.208Z,82.80
2023-05-04T20:05:20.533Z,84.10
2023-05-04T20:07:49.855Z,84.50
2023-05-04T20:10:17.972Z,85.30
2023-05-04T20:12:47.725Z,86.20
2023-05-04T20:15:15.979Z,86.40
2023-05-04T20:17:43.972Z,85.10
2023-05-04T20:20:18.961Z,86.40
2023-05-04T20:22:47.920Z,87.10
2023-05-04T20:25:16.041Z,87.40
2023-05-04T20:27:45.180Z,88.10
2023-05-04T20:30:14.850Z,87.10
2023-05-04T20:32:43.982Z,88.50
2023-05-04T20:35:12.154Z,88.20
2023-05-04T20:37:40.100Z,89.20
2023-05-04T20:40:09.660Z,89.20
2023-05-04T20:42:37.753Z,89.50
2023-05-04T20:45:07.108Z,88.80
2023-05-04T20:47:36.797Z,88.80
2023-05-04T20:50:05.173Z,88.30
2023-05-04T20:52:33.430Z,88.60
2023-05-04T20:55:01.374Z,90.00
2023-05-04T20:57:29.506Z,90.50
2023-05-04T20:59:57.803Z,90.80
2023-05-04T21:02:26.055Z,90.20
2023-05-04T21:04:55.412Z,90.20
2023-05-04T21:07:23.390Z,90.40
2023-05-04T21:09:51.380Z,90.60
2023-05-04T21:12:19.366Z,90.80
2023-05-04T21:14:47.311Z,90.50
2023-05-04T21:17:15.847Z,90.50
2023-05-04T21:19:43.856Z,90.30
2023-05-04T21:22:17.353Z,90.20
2023-05-04T21:24:47.080Z,90.70
2023-05-04T21:27:15.013Z,91.20
2023-05-04T21:29:42.964Z,91.20
2023-05-04T21:32:10.947Z,91.80
2023-05-04T21:34:38.899Z,91.60
2023-05-04T21:37:06.963Z,91.60
2023-05-04T21:39:36.331Z,91.30
2023-05-04T21:42:04.691Z,91.20
2023-05-04T21:44:32.618Z,91.20
2023-05-04T21:47:01.051Z,91.00
2023-05-04T21:49:29.055Z,91.60
2023-05-04T21:51:57.138Z,91.50
2023-05-04T21:54:25.713Z,91.40
2023-05-04T21:56:55.075Z,92.00
2023-05-04T21:59:23.074Z,91.50
2023-05-04T22:01:51.147Z,92.80
2023-05-04T22:04:19.148Z,92.80
2023-05-04T22:06:48.152Z,92.10
2023-05-04T22:09:16.575Z,92.30
2023-05-04T22:11:44.553Z,91.90
2023-05-04T22:14:13.986Z,91.90
2023-05-04T22:16:42.120Z,92.20
2023-05-04T22:19:10.215Z,92.70
2023-05-04T22:21:39.797Z,92.00
2023-05-04T22:24:08.282Z,91.80
2023-05-04T22:26:36.464Z,93.40
2023-05-04T22:29:04.614Z,93.40
2023-05-04T22:31:33.916Z,93.70
2023-05-04T22:34:02.011Z,93.60
2023-05-04T22:36:30.125Z,93.70
2023-05-04T22:38:58.103Z,93.90
2023-05-04T22:41:26.247Z,94.40
2023-05-04T22:43:54.216Z,94.50
2023-05-04T22:46:22.309Z,93.90
2023-05-04T22:48:51.646Z,94.10
2023-05-04T22:51:19.657Z,94.10
2023-05-04T22:53:47.656Z,94.40
2023-05-04T22:56:15.918Z,94.10
2023-05-04T22:58:45.869Z,93.70
2023-05-04T23:01:13.964Z,93.80
2023-05-04T23:03:42.143Z,93.60
2023-05-04T23:06:11.748Z,94.00
2023-05-04T23:08:39.827Z,94.20
2023-05-04T23:11:08.061Z,94.20
2023-05-04T23:13:36.032Z,94.80
2023-05-04T23:16:04.180Z,94.80
2023-05-04T23:18:33.320Z,94.80
2023-05-04T23:21:01.385Z,94.90
2023-05-04T23:23:31.129Z,95.20
2023-05-04T23:25:59.052Z,95.20
2023-05-04T23:28:27.048Z,95.40
2023-05-04T23:30:55.698Z,95.40
2023-05-04T23:33:23.770Z,94.90
2023-05-04T23:35:55.588Z,94.80
2023-05-04T23:38:23.856Z,95.50
2023-05-04T23:40:53.809Z,95.20
2023-05-04T23:43:23.377Z,95.60
2023-05-04T23:45:51.520Z,95.70
2023-05-04T23:48:19.633Z,95.40
2023-05-04T23:50:53.896Z,95.10
2023-05-04T23:53:21.898Z,95.40
2023-05-04T23:56:00.712Z,95.40
2023-05-04T23:58:31.880Z,95.00
